aviador You're here:

KRST Decoded Metar

ROCHESTER in MN, USA
Report Time2017-09-25 19:54:00
UTC Time2017-09-25 20:35:53
Flight Rules vfr VFR
Wind340° at 08 kt
W.Decomp.*RWY 31: 7.0 kt HW 3.9 kt RCW
RWY 02: 6.0 kt HW 5.2 kt LCW
W.Rank340° ranks 14
Current wind is below 340° avg. (10.2)
Visibility9999 m
Phenomena:N/A
Clouds:Scattered 029 Hf
Broken 033 Hf
Overcast 047 Hf
Expected CloudBase > 1,600 ft AGL from Temp-Dew spread
Ceiling3,300 ft
Temp23°C (ISA +11)
Dew Point19°C (78% RH)
QNH1013 hPa
Density Alt2,851 ft
Elevation1,322 ft
Report Wrong Elevation
Raw Report
KRST 251954Z 34008KT 10SM SCT029 BKN033 OVC047 23/19 A2992 RMK AO2
SLP128 T02280194=

Extra information for KRST:More info

Metar Taf Metar & Taf Last 4 Metars F.Rules Stats Wind Profile Meteogram Temp Stats Airport Information Weather charts Add Link Nearby VenuesMetar ALERT Operation Metar Decoded Social comments

AIRNAV info for KRST